sensor_id;sensor_type;location;lat;lon;timestamp;pressure;altitude;pressure_sealevel;temperature;humidity
59939;BME280;45801;51.810;19.444;2022-09-09T00:00:15;98721.56;;;14.70;75.34
59939;BME280;45801;51.810;19.444;2022-09-09T00:03:12;98720.67;;;14.70;75.82
59939;BME280;45801;51.810;19.444;2022-09-09T00:05:55;98719.98;;;14.70;75.78
59939;BME280;45801;51.810;19.444;2022-09-09T00:08:35;98720.34;;;14.71;75.92
59939;BME280;45801;51.810;19.444;2022-09-09T00:11:09;98718.23;;;14.71;75.78
59939;BME280;45801;51.810;19.444;2022-09-09T00:13:46;98715.80;;;14.73;76.30
59939;BME280;45801;51.810;19.444;2022-09-09T00:16:19;98717.39;;;14.73;76.10
59939;BME280;45801;51.810;19.444;2022-09-09T00:19:01;98715.80;;;14.74;76.11
59939;BME280;45801;51.810;19.444;2022-09-09T00:21:50;98714.02;;;14.71;76.16
59939;BME280;45801;51.810;19.444;2022-09-09T00:24:27;98714.16;;;14.70;76.24
59939;BME280;45801;51.810;19.444;2022-09-09T00:27:01;98713.41;;;14.67;76.09
59939;BME280;45801;51.810;19.444;2022-09-09T00:29:57;98707.57;;;14.66;75.95
59939;BME280;45801;51.810;19.444;2022-09-09T00:32:28;98704.94;;;14.66;75.99
59939;BME280;45801;51.810;19.444;2022-09-09T00:35:03;98704.60;;;14.67;76.08
59939;BME280;45801;51.810;19.444;2022-09-09T00:37:31;98708.68;;;14.69;76.24
59939;BME280;45801;51.810;19.444;2022-09-09T00:40:00;98707.48;;;14.71;76.54
59939;BME280;45801;51.810;19.444;2022-09-09T00:42:40;98707.52;;;14.73;76.34
59939;BME280;45801;51.810;19.444;2022-09-09T00:47:53;98705.13;;;14.77;76.21
59939;BME280;45801;51.810;19.444;2022-09-09T00:53:24;98705.27;;;14.75;76.40
59939;BME280;45801;51.810;19.444;2022-09-09T00:56:16;98703.84;;;14.75;76.32
59939;BME280;45801;51.810;19.444;2022-09-09T00:59:12;98707.17;;;14.74;76.28
59939;BME280;45801;51.810;19.444;2022-09-09T01:01:42;98712.12;;;14.74;76.50
59939;BME280;45801;51.810;19.444;2022-09-09T01:04:13;98710.89;;;14.74;76.23
59939;BME280;45801;51.810;19.444;2022-09-09T01:06:43;98714.39;;;14.73;76.00
59939;BME280;45801;51.810;19.444;2022-09-09T01:09:21;98711.39;;;14.74;76.08
59939;BME280;45801;51.810;19.444;2022-09-09T01:17:21;98722.52;;;14.74;76.16
59939;BME280;45801;51.810;19.444;2022-09-09T01:20:13;98720.05;;;14.74;76.58
59939;BME280;45801;51.810;19.444;2022-09-09T01:22:53;98721.46;;;14.74;76.82
59939;BME280;45801;51.810;19.444;2022-09-09T01:26:02;98720.56;;;14.73;76.44
59939;BME280;45801;51.810;19.444;2022-09-09T01:28:31;98722.64;;;14.72;76.32
59939;BME280;45801;51.810;19.444;2022-09-09T01:31:03;98727.08;;;14.72;76.65
59939;BME280;45801;51.810;19.444;2022-09-09T01:33:30;98727.08;;;14.73;76.31
59939;BME280;45801;51.810;19.444;2022-09-09T01:36:04;98728.16;;;14.74;76.73
59939;BME280;45801;51.810;19.444;2022-09-09T01:38:33;98738.05;;;14.74;77.02
59939;BME280;45801;51.810;19.444;2022-09-09T01:41:00;98747.02;;;14.74;76.76
59939;BME280;45801;51.810;19.444;2022-09-09T01:43:28;98751.42;;;14.74;76.48
59939;BME280;45801;51.810;19.444;2022-09-09T01:45:56;98755.88;;;14.76;76.44
59939;BME280;45801;51.810;19.444;2022-09-09T01:48:25;98758.52;;;14.76;76.17
59939;BME280;45801;51.810;19.444;2022-09-09T01:50:51;98761.13;;;14.75;76.32
59939;BME280;45801;51.810;19.444;2022-09-09T01:53:19;98761.11;;;14.73;76.16
59939;BME280;45801;51.810;19.444;2022-09-09T01:56:13;98762.35;;;14.74;76.29
59939;BME280;45801;51.810;19.444;2022-09-09T01:59:09;98766.75;;;14.73;76.65
59939;BME280;45801;51.810;19.444;2022-09-09T02:02:02;98765.01;;;14.74;76.60
59939;BME280;45801;51.810;19.444;2022-09-09T02:04:47;98765.05;;;14.76;76.71
59939;BME280;45801;51.810;19.444;2022-09-09T02:07:50;98773.14;;;14.75;76.56
59939;BME280;45801;51.810;19.444;2022-09-09T02:10:22;98765.41;;;14.76;76.77
59939;BME280;45801;51.810;19.444;2022-09-09T02:13:01;98761.21;;;14.79;76.87
59939;BME280;45801;51.810;19.444;2022-09-09T02:15:44;98761.59;;;14.80;77.13
59939;BME280;45801;51.810;19.444;2022-09-09T02:18:13;98764.53;;;14.77;77.40
59939;BME280;45801;51.810;19.444;2022-09-09T02:20:43;98767.45;;;14.73;77.44
59939;BME280;45801;51.810;19.444;2022-09-09T02:23:11;98768.88;;;14.74;76.87
59939;BME280;45801;51.810;19.444;2022-09-09T02:25:40;98769.27;;;14.75;76.66
59939;BME280;45801;51.810;19.444;2022-09-09T02:28:08;98770.17;;;14.77;77.02
59939;BME280;45801;51.810;19.444;2022-09-09T02:30:37;98768.27;;;14.79;76.83
59939;BME280;45801;51.810;19.444;2022-09-09T02:33:06;98766.34;;;14.79;76.84
59939;BME280;45801;51.810;19.444;2022-09-09T02:35:34;98765.47;;;14.80;76.67
59939;BME280;45801;51.810;19.444;2022-09-09T02:38:08;98769.20;;;14.82;77.12
59939;BME280;45801;51.810;19.444;2022-09-09T02:40:36;98768.31;;;14.82;76.97
59939;BME280;45801;51.810;19.444;2022-09-09T02:43:02;98769.02;;;14.82;76.64
59939;BME280;45801;51.810;19.444;2022-09-09T02:46:03;98768.31;;;14.82;76.70
59939;BME280;45801;51.810;19.444;2022-09-09T02:48:50;98769.31;;;14.78;77.28
59939;BME280;45801;51.810;19.444;2022-09-09T02:54:10;98765.31;;;14.81;77.18
59939;BME280;45801;51.810;19.444;2022-09-09T02:56:44;98769.70;;;14.81;76.76
59939;BME280;45801;51.810;19.444;2022-09-09T02:59:12;98773.77;;;14.81;76.92
59939;BME280;45801;51.810;19.444;2022-09-09T03:01:39;98778.91;;;14.83;77.26
59939;BME280;45801;51.810;19.444;2022-09-09T03:04:06;98776.65;;;14.84;77.30
59939;BME280;45801;51.810;19.444;2022-09-09T03:06:32;98777.23;;;14.87;77.43
59939;BME280;45801;51.810;19.444;2022-09-09T03:08:59;98776.87;;;14.87;77.16
59939;BME280;45801;51.810;19.444;2022-09-09T03:11:28;98776.35;;;14.87;77.34
59939;BME280;45801;51.810;19.444;2022-09-09T03:13:54;98774.61;;;14.88;77.19
59939;BME280;45801;51.810;19.444;2022-09-09T03:16:23;98773.94;;;14.90;77.83
59939;BME280;45801;51.810;19.444;2022-09-09T03:18:49;98782.56;;;14.89;77.97
59939;BME280;45801;51.810;19.444;2022-09-09T03:21:16;98777.27;;;14.89;77.50
59939;BME280;45801;51.810;19.444;2022-09-09T03:23:42;98771.65;;;14.90;77.44
59939;BME280;45801;51.810;19.444;2022-09-09T03:26:09;98773.21;;;14.89;77.53
59939;BME280;45801;51.810;19.444;2022-09-09T03:28:36;98775.35;;;14.90;77.49
59939;BME280;45801;51.810;19.444;2022-09-09T03:31:04;98773.97;;;14.91;77.52
59939;BME280;45801;51.810;19.444;2022-09-09T03:33:31;98774.03;;;14.94;77.72
59939;BME280;45801;51.810;19.444;2022-09-09T03:35:57;98777.06;;;14.97;77.47
59939;BME280;45801;51.810;19.444;2022-09-09T03:38:24;98775.54;;;15.00;77.35
59939;BME280;45801;51.810;19.444;2022-09-09T03:40:53;98779.27;;;15.02;77.45
59939;BME280;45801;51.810;19.444;2022-09-09T03:43:28;98769.95;;;15.03;77.55
59939;BME280;45801;51.810;19.444;2022-09-09T03:45:56;98776.27;;;15.02;77.54
59939;BME280;45801;51.810;19.444;2022-09-09T03:48:25;98777.33;;;15.01;77.18
59939;BME280;45801;51.810;19.444;2022-09-09T03:50:54;98783.11;;;15.00;77.36
59939;BME280;45801;51.810;19.444;2022-09-09T03:53:27;98788.45;;;15.02;77.11
59939;BME280;45801;51.810;19.444;2022-09-09T03:55:55;98787.75;;;15.02;77.25
59939;BME280;45801;51.810;19.444;2022-09-09T03:58:23;98787.25;;;15.04;77.25
59939;BME280;45801;51.810;19.444;2022-09-09T04:00:54;98782.86;;;15.05;77.26
59939;BME280;45801;51.810;19.444;2022-09-09T04:03:21;98788.36;;;15.07;77.53
59939;BME280;45801;51.810;19.444;2022-09-09T04:05:51;98788.03;;;15.08;77.49
59939;BME280;45801;51.810;19.444;2022-09-09T04:08:19;98794.60;;;15.11;77.93
59939;BME280;45801;51.810;19.444;2022-09-09T04:10:47;98790.56;;;15.11;77.65
59939;BME280;45801;51.810;19.444;2022-09-09T04:13:15;98794.45;;;15.12;77.58
59939;BME280;45801;51.810;19.444;2022-09-09T04:15:48;98800.41;;;15.10;77.57
59939;BME280;45801;51.810;19.444;2022-09-09T04:18:16;98803.32;;;15.06;77.54
59939;BME280;45801;51.810;19.444;2022-09-09T04:20:42;98805.77;;;15.04;77.38
59939;BME280;45801;51.810;19.444;2022-09-09T04:23:09;98801.04;;;15.07;77.27
59939;BME280;45801;51.810;19.444;2022-09-09T04:25:35;98798.09;;;15.09;77.71
59939;BME280;45801;51.810;19.444;2022-09-09T04:28:02;98801.31;;;15.11;77.57
59939;BME280;45801;51.810;19.444;2022-09-09T04:30:29;98799.43;;;15.14;77.86
59939;BME280;45801;51.810;19.444;2022-09-09T04:32:56;98797.89;;;15.17;78.02
59939;BME280;45801;51.810;19.444;2022-09-09T04:35:22;98803.59;;;15.20;78.21
59939;BME280;45801;51.810;19.444;2022-09-09T04:37:49;98799.58;;;15.23;78.42
59939;BME280;45801;51.810;19.444;2022-09-09T04:40:15;98801.71;;;15.24;78.29
59939;BME280;45801;51.810;19.444;2022-09-09T04:42:42;98804.40;;;15.26;78.16
59939;BME280;45801;51.810;19.444;2022-09-09T04:45:10;98802.52;;;15.28;78.29
59939;BME280;45801;51.810;19.444;2022-09-09T04:47:37;98799.55;;;15.32;78.37
59939;BME280;45801;51.810;19.444;2022-09-09T04:50:04;98797.11;;;15.33;78.07
59939;BME280;45801;51.810;19.444;2022-09-09T04:52:33;98800.64;;;15.34;78.15
59939;BME280;45801;51.810;19.444;2022-09-09T04:54:59;98804.36;;;15.34;78.20
59939;BME280;45801;51.810;19.444;2022-09-09T04:57:26;98805.96;;;15.34;78.51
59939;BME280;45801;51.810;19.444;2022-09-09T04:59:53;98807.58;;;15.36;78.62
59939;BME280;45801;51.810;19.444;2022-09-09T05:02:19;98808.50;;;15.39;78.40
59939;BME280;45801;51.810;19.444;2022-09-09T05:04:46;98810.52;;;15.43;78.69
59939;BME280;45801;51.810;19.444;2022-09-09T05:07:12;98812.30;;;15.45;78.76
59939;BME280;45801;51.810;19.444;2022-09-09T05:09:40;98811.78;;;15.45;78.77
59939;BME280;45801;51.810;19.444;2022-09-09T05:12:07;98812.34;;;15.46;78.70
59939;BME280;45801;51.810;19.444;2022-09-09T05:14:34;98813.23;;;15.46;78.55
59939;BME280;45801;51.810;19.444;2022-09-09T05:17:04;98816.23;;;15.47;78.56
59939;BME280;45801;51.810;19.444;2022-09-09T05:19:30;98814.86;;;15.50;78.42
59939;BME280;45801;51.810;19.444;2022-09-09T05:21:57;98814.00;;;15.51;78.66
59939;BME280;45801;51.810;19.444;2022-09-09T05:24:23;98813.16;;;15.53;78.67
59939;BME280;45801;51.810;19.444;2022-09-09T05:26:50;98816.20;;;15.56;78.81
59939;BME280;45801;51.810;19.444;2022-09-09T05:29:16;98817.66;;;15.59;79.03
59939;BME280;45801;51.810;19.444;2022-09-09T05:31:45;98818.40;;;15.61;78.98
59939;BME280;45801;51.810;19.444;2022-09-09T05:34:13;98819.14;;;15.63;79.23
59939;BME280;45801;51.810;19.444;2022-09-09T05:36:39;98822.20;;;15.66;79.37
59939;BME280;45801;51.810;19.444;2022-09-09T05:39:05;98823.29;;;15.68;79.46
59939;BME280;45801;51.810;19.444;2022-09-09T05:41:32;98825.43;;;15.69;79.49
59939;BME280;45801;51.810;19.444;2022-09-09T05:43:59;98826.35;;;15.71;79.36
59939;BME280;45801;51.810;19.444;2022-09-09T05:46:27;98827.23;;;15.72;79.45
59939;BME280;45801;51.810;19.444;2022-09-09T05:48:54;98830.80;;;15.73;79.35
59939;BME280;45801;51.810;19.444;2022-09-09T05:51:22;98829.06;;;15.77;79.24
59939;BME280;45801;51.810;19.444;2022-09-09T05:53:50;98829.84;;;15.79;79.54
59939;BME280;45801;51.810;19.444;2022-09-09T05:56:19;98832.89;;;15.81;79.64
59939;BME280;45801;51.810;19.444;2022-09-09T05:58:46;98838.77;;;15.84;79.97
59939;BME280;45801;51.810;19.444;2022-09-09T06:03:47;98843.73;;;15.86;80.22
59939;BME280;45801;51.810;19.444;2022-09-09T06:06:15;98844.48;;;15.88;80.43
59939;BME280;45801;51.810;19.444;2022-09-09T06:08:44;98842.05;;;15.92;80.37
59939;BME280;45801;51.810;19.444;2022-09-09T06:11:13;98843.20;;;15.97;80.50
59939;BME280;45801;51.810;19.444;2022-09-09T06:13:41;98848.39;;;16.01;80.60
59939;BME280;45801;51.810;19.444;2022-09-09T06:16:09;98849.68;;;16.05;80.49
59939;BME280;45801;51.810;19.444;2022-09-09T06:18:38;98849.75;;;16.10;80.43
59939;BME280;45801;51.810;19.444;2022-09-09T06:21:14;98851.20;;;16.12;80.30
59939;BME280;45801;51.810;19.444;2022-09-09T06:23:41;98855.14;;;16.16;80.52
59939;BME280;45801;51.810;19.444;2022-09-09T06:28:45;98852.19;;;16.19;80.01
59939;BME280;45801;51.810;19.444;2022-09-09T06:31:16;98853.09;;;16.20;80.12
59939;BME280;45801;51.810;19.444;2022-09-09T06:33:51;98853.46;;;16.21;80.14
59939;BME280;45801;51.810;19.444;2022-09-09T06:36:23;98858.08;;;16.23;80.38
59939;BME280;45801;51.810;19.444;2022-09-09T06:38:50;98860.05;;;16.25;80.50
59939;BME280;45801;51.810;19.444;2022-09-09T06:41:18;98861.48;;;16.26;80.65
59939;BME280;45801;51.810;19.444;2022-09-09T06:43:46;98860.13;;;16.31;80.88
59939;BME280;45801;51.810;19.444;2022-09-09T06:46:16;98861.40;;;16.33;80.78
59939;BME280;45801;51.810;19.444;2022-09-09T06:48:43;98860.88;;;16.34;80.67
59939;BME280;45801;51.810;19.444;2022-09-09T06:51:16;98862.84;;;16.36;80.86
59939;BME280;45801;51.810;19.444;2022-09-09T06:53:45;98862.88;;;16.37;80.81
59939;BME280;45801;51.810;19.444;2022-09-09T06:56:20;98864.48;;;16.38;80.81
59939;BME280;45801;51.810;19.444;2022-09-09T06:58:51;98863.46;;;16.41;80.77
59939;BME280;45801;51.810;19.444;2022-09-09T07:01:29;98867.21;;;16.44;80.54
59939;BME280;45801;51.810;19.444;2022-09-09T07:03:57;98871.50;;;16.47;80.75
59939;BME280;45801;51.810;19.444;2022-09-09T07:06:32;98877.88;;;16.49;80.35
59939;BME280;45801;51.810;19.444;2022-09-09T07:09:06;98876.65;;;16.49;80.42
59939;BME280;45801;51.810;19.444;2022-09-09T07:11:38;98882.50;;;16.51;80.61
59939;BME280;45801;51.810;19.444;2022-09-09T07:14:04;98880.05;;;16.52;80.77
59939;BME280;45801;51.810;19.444;2022-09-09T07:16:31;98883.45;;;16.55;80.77
59939;BME280;45801;51.810;19.444;2022-09-09T07:18:59;98882.97;;;16.58;80.69
59939;BME280;45801;51.810;19.444;2022-09-09T07:21:28;98885.48;;;16.62;80.89
59939;BME280;45801;51.810;19.444;2022-09-09T07:23:55;98883.77;;;16.66;80.90
59939;BME280;45801;51.810;19.444;2022-09-09T07:26:24;98884.91;;;16.72;80.91
59939;BME280;45801;51.810;19.444;2022-09-09T07:28:52;98885.17;;;16.78;80.93
59939;BME280;45801;51.810;19.444;2022-09-09T07:31:22;98888.41;;;16.83;80.56
59939;BME280;45801;51.810;19.444;2022-09-09T07:33:49;98887.77;;;16.86;80.38
59939;BME280;45801;51.810;19.444;2022-09-09T07:36:21;98891.73;;;16.90;80.13
59939;BME280;45801;51.810;19.444;2022-09-09T07:38:50;98896.35;;;16.93;79.90
59939;BME280;45801;51.810;19.444;2022-09-09T07:43:47;98896.57;;;16.96;79.94
59939;BME280;45801;51.810;19.444;2022-09-09T07:46:16;98899.41;;;16.96;80.16
59939;BME280;45801;51.810;19.444;2022-09-09T07:49:05;98900.48;;;16.97;80.03
59939;BME280;45801;51.810;19.444;2022-09-09T07:51:34;98903.16;;;16.99;80.26
59939;BME280;45801;51.810;19.444;2022-09-09T07:54:05;98906.19;;;17.02;80.39
59939;BME280;45801;51.810;19.444;2022-09-09T07:56:32;98904.27;;;17.04;80.32
59939;BME280;45801;51.810;19.444;2022-09-09T07:58:59;98906.44;;;17.08;80.31
59939;BME280;45801;51.810;19.444;2022-09-09T08:01:32;98909.48;;;17.10;80.19
59939;BME280;45801;51.810;19.444;2022-09-09T08:04:04;98918.53;;;17.12;80.52
59939;BME280;45801;51.810;19.444;2022-09-09T08:06:35;98921.23;;;17.16;80.44
59939;BME280;45801;51.810;19.444;2022-09-09T08:09:03;98926.38;;;17.18;80.18
59939;BME280;45801;51.810;19.444;2022-09-09T08:11:30;98934.54;;;17.19;80.15
59939;BME280;45801;51.810;19.444;2022-09-09T08:13:57;98930.13;;;17.22;79.83
59939;BME280;45801;51.810;19.444;2022-09-09T08:16:26;98933.71;;;17.24;79.55
59939;BME280;45801;51.810;19.444;2022-09-09T08:18:52;98931.83;;;17.28;79.34
59939;BME280;45801;51.810;19.444;2022-09-09T08:21:26;98929.38;;;17.33;79.31
59939;BME280;45801;51.810;19.444;2022-09-09T08:23:57;98934.89;;;17.35;79.24
59939;BME280;45801;51.810;19.444;2022-09-09T08:26:26;98931.34;;;17.34;78.84
59939;BME280;45801;51.810;19.444;2022-09-09T08:28:55;98931.55;;;17.36;78.97
59939;BME280;45801;51.810;19.444;2022-09-09T08:31:27;98933.55;;;17.40;79.37
59939;BME280;45801;51.810;19.444;2022-09-09T08:33:57;98936.64;;;17.48;79.38
59939;BME280;45801;51.810;19.444;2022-09-09T08:36:32;98936.34;;;17.54;79.05
59939;BME280;45801;51.810;19.444;2022-09-09T08:39:00;98936.55;;;17.58;78.54
59939;BME280;45801;51.810;19.444;2022-09-09T08:52:37;98946.39;;;17.66;76.86
59939;BME280;45801;51.810;19.444;2022-09-09T08:55:33;98950.42;;;17.63;77.36
59939;BME280;45801;51.810;19.444;2022-09-09T08:58:16;98951.79;;;17.58;77.60
59939;BME280;45801;51.810;19.444;2022-09-09T09:06:37;98948.66;;;17.64;78.33
59939;BME280;45801;51.810;19.444;2022-09-09T09:11:58;98945.81;;;17.79;77.80
59939;BME280;45801;51.810;19.444;2022-09-09T09:14:32;98947.11;;;17.85;77.20
59939;BME280;45801;51.810;19.444;2022-09-09T09:17:10;98947.90;;;17.91;76.96
59939;BME280;45801;51.810;19.444;2022-09-09T09:19:40;98948.64;;;17.94;76.68
59939;BME280;45801;51.810;19.444;2022-09-09T09:24:52;98954.48;;;17.96;76.21
59939;BME280;45801;51.810;19.444;2022-09-09T09:27:31;98955.58;;;17.97;76.36
59939;BME280;45801;51.810;19.444;2022-09-09T09:29:59;98951.19;;;18.01;76.06
59939;BME280;45801;51.810;19.444;2022-09-09T09:32:30;98951.70;;;17.99;75.45
59939;BME280;45801;51.810;19.444;2022-09-09T09:35:01;98955.06;;;17.98;75.09
59939;BME280;45801;51.810;19.444;2022-09-09T09:37:34;98960.40;;;18.00;75.10
59939;BME280;45801;51.810;19.444;2022-09-09T09:40:16;98959.35;;;18.01;75.54
59939;BME280;45801;51.810;19.444;2022-09-09T09:42:54;98958.09;;;18.00;75.75
59939;BME280;45801;51.810;19.444;2022-09-09T09:45:40;98955.09;;;18.02;75.69
59939;BME280;45801;51.810;19.444;2022-09-09T09:48:12;98959.73;;;18.05;75.58
59939;BME280;45801;51.810;19.444;2022-09-09T09:50:58;98957.05;;;18.04;75.96
59939;BME280;45801;51.810;19.444;2022-09-09T09:53:36;98960.61;;;18.06;76.24
59939;BME280;45801;51.810;19.444;2022-09-09T09:56:06;98962.76;;;18.07;76.23
59939;BME280;45801;51.810;19.444;2022-09-09T09:58:50;98963.98;;;18.07;76.20
59939;BME280;45801;51.810;19.444;2022-09-09T10:01:24;98966.67;;;18.10;76.03
59939;BME280;45801;51.810;19.444;2022-09-09T10:03:53;98967.77;;;18.16;75.43
59939;BME280;45801;51.810;19.444;2022-09-09T10:06:35;98968.34;;;18.17;74.95
59939;BME280;45801;51.810;19.444;2022-09-09T10:09:04;98968.19;;;18.21;75.20
59939;BME280;45801;51.810;19.444;2022-09-09T10:20:26;98973.96;;;18.83;73.62
59939;BME280;45801;51.810;19.444;2022-09-09T10:22:50;98973.55;;;19.00;73.69
59939;BME280;45801;51.810;19.444;2022-09-09T10:25:52;98976.56;;;19.01;72.33
59939;BME280;45801;51.810;19.444;2022-09-09T10:28:40;98979.93;;;18.99;72.08
59939;BME280;45801;51.810;19.444;2022-09-09T10:34:14;98989.14;;;18.98;72.10
59939;BME280;45801;51.810;19.444;2022-09-09T10:36:47;98989.23;;;19.09;71.30
59939;BME280;45801;51.810;19.444;2022-09-09T10:39:38;98984.46;;;19.18;70.97
59939;BME280;45801;51.810;19.444;2022-09-09T10:42:13;98983.80;;;19.27;71.44
59939;BME280;45801;51.810;19.444;2022-09-09T10:44:44;98992.68;;;19.27;70.49
59939;BME280;45801;51.810;19.444;2022-09-09T10:52:45;98987.08;;;19.46;70.03
59939;BME280;45801;51.810;19.444;2022-09-09T10:55:23;98990.98;;;19.47;69.97
59939;BME280;45801;51.810;19.444;2022-09-09T10:57:57;98995.42;;;19.50;70.10
59939;BME280;45801;51.810;19.444;2022-09-09T11:00:30;98991.89;;;19.58;69.87
59939;BME280;45801;51.810;19.444;2022-09-09T11:03:02;98989.44;;;19.66;69.77
59939;BME280;45801;51.810;19.444;2022-09-09T11:05:41;98991.05;;;19.69;68.60
59939;BME280;45801;51.810;19.444;2022-09-09T11:08:24;98999.58;;;19.71;68.84
59939;BME280;45801;51.810;19.444;2022-09-09T11:11:02;99001.55;;;19.76;68.40
59939;BME280;45801;51.810;19.444;2022-09-09T11:13:42;99004.80;;;19.86;68.70
59939;BME280;45801;51.810;19.444;2022-09-09T11:16:16;99006.23;;;19.92;68.50
59939;BME280;45801;51.810;19.444;2022-09-09T11:18:46;99005.19;;;20.00;67.44
59939;BME280;45801;51.810;19.444;2022-09-09T11:21:22;99009.45;;;20.02;67.42
59939;BME280;45801;51.810;19.444;2022-09-09T11:24:04;99005.55;;;20.05;66.19
59939;BME280;45801;51.810;19.444;2022-09-09T11:26:40;99004.13;;;20.13;66.82
59939;BME280;45801;51.810;19.444;2022-09-09T11:29:24;99005.04;;;20.24;67.15
59939;BME280;45801;51.810;19.444;2022-09-09T11:31:56;99004.33;;;20.38;66.98
59939;BME280;45801;51.810;19.444;2022-09-09T11:37:23;98993.48;;;20.65;66.63
59939;BME280;45801;51.810;19.444;2022-09-09T11:40:15;98987.95;;;20.80;66.12
59939;BME280;45801;51.810;19.444;2022-09-09T11:42:43;98983.31;;;20.88;65.38
59939;BME280;45801;51.810;19.444;2022-09-09T11:45:15;98984.17;;;20.97;65.37
59939;BME280;45801;51.810;19.444;2022-09-09T11:48:22;98981.33;;;20.99;65.04
59939;BME280;45801;51.810;19.444;2022-09-09T11:51:03;98973.48;;;21.05;64.77
59939;BME280;45801;51.810;19.444;2022-09-09T11:53:31;98971.13;;;21.11;64.01
59939;BME280;45801;51.810;19.444;2022-09-09T11:56:09;98972.21;;;21.11;63.50
59939;BME280;45801;51.810;19.444;2022-09-09T11:58:39;98971.48;;;21.18;63.67
59939;BME280;45801;51.810;19.444;2022-09-09T12:01:14;98970.55;;;21.27;63.41
59939;BME280;45801;51.810;19.444;2022-09-09T12:03:47;98969.80;;;21.32;62.59
59939;BME280;45801;51.810;19.444;2022-09-09T12:06:31;98964.48;;;21.31;63.13
59939;BME280;45801;51.810;19.444;2022-09-09T12:09:15;98962.88;;;21.26;63.04
59939;BME280;45801;51.810;19.444;2022-09-09T12:11:43;98955.80;;;21.19;63.18
59939;BME280;45801;51.810;19.444;2022-09-09T12:14:20;98956.88;;;21.13;63.02
59939;BME280;45801;51.810;19.444;2022-09-09T12:16:47;98951.20;;;21.06;63.02
59939;BME280;45801;51.810;19.444;2022-09-09T12:19:18;98948.73;;;21.00;63.75
59939;BME280;45801;51.810;19.444;2022-09-09T12:22:00;98946.98;;;20.94;63.42
59939;BME280;45801;51.810;19.444;2022-09-09T12:24:35;98944.67;;;20.90;63.81
59939;BME280;45801;51.810;19.444;2022-09-09T12:27:29;98948.61;;;20.83;63.49
59939;BME280;45801;51.810;19.444;2022-09-09T12:30:10;98951.81;;;20.79;63.90
59939;BME280;45801;51.810;19.444;2022-09-09T12:32:38;98958.59;;;20.78;64.26
59939;BME280;45801;51.810;19.444;2022-09-09T12:35:31;98966.79;;;20.78;63.97
59939;BME280;45801;51.810;19.444;2022-09-09T12:38:01;98965.36;;;20.78;64.77
59939;BME280;45801;51.810;19.444;2022-09-09T12:40:31;98968.02;;;20.80;65.07
59939;BME280;45801;51.810;19.444;2022-09-09T12:43:02;98968.73;;;20.81;65.08
59939;BME280;45801;51.810;19.444;2022-09-09T12:45:42;98973.35;;;20.80;65.36
59939;BME280;45801;51.810;19.444;2022-09-09T12:48:09;98971.94;;;20.81;65.39
59939;BME280;45801;51.810;19.444;2022-09-09T12:50:47;98965.35;;;20.82;65.08
59939;BME280;45801;51.810;19.444;2022-09-09T12:53:26;98964.10;;;20.78;64.15
59939;BME280;45801;51.810;19.444;2022-09-09T12:55:57;98964.65;;;20.69;63.00
59939;BME280;45801;51.810;19.444;2022-09-09T12:58:24;98966.96;;;20.59;64.02
59939;BME280;45801;51.810;19.444;2022-09-09T13:00:53;98968.39;;;20.55;64.66
59939;BME280;45801;51.810;19.444;2022-09-09T13:03:23;98964.12;;;20.54;65.00
59939;BME280;45801;51.810;19.444;2022-09-09T13:05:49;98964.47;;;20.58;65.67
59939;BME280;45801;51.810;19.444;2022-09-09T13:08:17;98960.54;;;20.63;64.81
59939;BME280;45801;51.810;19.444;2022-09-09T13:10:57;98954.52;;;20.66;64.51
59939;BME280;45801;51.810;19.444;2022-09-09T13:13:30;98959.32;;;20.70;65.21
59939;BME280;45801;51.810;19.444;2022-09-09T13:16:02;98959.31;;;20.71;64.49
59939;BME280;45801;51.810;19.444;2022-09-09T13:18:33;98960.22;;;20.73;64.13
59939;BME280;45801;51.810;19.444;2022-09-09T13:21:01;98960.38;;;20.75;63.72
59939;BME280;45801;51.810;19.444;2022-09-09T13:23:30;98962.87;;;20.75;63.42
59939;BME280;45801;51.810;19.444;2022-09-09T13:26:24;98958.24;;;20.74;63.80
59939;BME280;45801;51.810;19.444;2022-09-09T13:28:54;98954.69;;;20.72;64.03
59939;BME280;45801;51.810;19.444;2022-09-09T13:31:33;98954.69;;;20.68;64.65
59939;BME280;45801;51.810;19.444;2022-09-09T13:34:30;98956.27;;;20.63;63.99
59939;BME280;45801;51.810;19.444;2022-09-09T13:37:01;98958.41;;;20.59;64.00
59939;BME280;45801;51.810;19.444;2022-09-09T13:39:29;98949.70;;;20.57;63.58
59939;BME280;45801;51.810;19.444;2022-09-09T13:41:55;98947.93;;;20.56;63.33
59939;BME280;45801;51.810;19.444;2022-09-09T13:44:26;98946.50;;;20.54;62.93
59939;BME280;45801;51.810;19.444;2022-09-09T13:47:01;98946.50;;;20.50;63.45
59939;BME280;45801;51.810;19.444;2022-09-09T13:49:29;98945.45;;;20.45;63.38
59939;BME280;45801;51.810;19.444;2022-09-09T13:52:05;98947.23;;;20.39;63.99
59939;BME280;45801;51.810;19.444;2022-09-09T13:54:34;98948.11;;;20.34;64.02
59939;BME280;45801;51.810;19.444;2022-09-09T13:57:01;98947.77;;;20.30;64.15
59939;BME280;45801;51.810;19.444;2022-09-09T13:59:28;98948.48;;;20.26;65.04
59939;BME280;45801;51.810;19.444;2022-09-09T14:01:55;98946.70;;;20.23;65.66
59939;BME280;45801;51.810;19.444;2022-09-09T14:04:21;98947.95;;;20.21;65.51
59939;BME280;45801;51.810;19.444;2022-09-09T14:06:48;98946.53;;;20.20;66.07
59939;BME280;45801;51.810;19.444;2022-09-09T14:09:17;98946.88;;;20.20;66.58
59939;BME280;45801;51.810;19.444;2022-09-09T14:11:44;98944.39;;;20.22;66.69
59939;BME280;45801;51.810;19.444;2022-09-09T14:14:12;98943.68;;;20.22;66.15
59939;BME280;45801;51.810;19.444;2022-09-09T14:16:38;98946.00;;;20.24;66.60
59939;BME280;45801;51.810;19.444;2022-09-09T14:19:05;98943.33;;;20.22;66.69
59939;BME280;45801;51.810;19.444;2022-09-09T14:21:31;98944.93;;;20.20;65.10